sensor_id;sensor_type;location;lat;lon;timestamp;P1;durP1;ratioP1;P2;durP2;ratioP2
11490;SDS011;5802;52.832;4.758;2023-05-29T00:00:39;9.90;;;1.95;;
11490;SDS011;5802;52.832;4.758;2023-05-29T00:03:07;3.17;;;1.33;;
11490;SDS011;5802;52.832;4.758;2023-05-29T00:05:35;4.85;;;1.80;;
11490;SDS011;5802;52.832;4.758;2023-05-29T00:08:02;3.85;;;1.67;;
11490;SDS011;5802;52.832;4.758;2023-05-29T00:10:29;7.55;;;1.90;;
11490;SDS011;5802;52.832;4.758;2023-05-29T00:12:56;7.70;;;1.60;;
11490;SDS011;5802;52.832;4.758;2023-05-29T00:15:25;7.80;;;2.03;;
11490;SDS011;5802;52.832;4.758;2023-05-29T00:17:52;4.45;;;1.70;;
11490;SDS011;5802;52.832;4.758;2023-05-29T00:20:19;8.75;;;2.00;;
11490;SDS011;5802;52.832;4.758;2023-05-29T00:22:47;5.55;;;1.60;;
11490;SDS011;5802;52.832;4.758;2023-05-29T00:25:14;9.63;;;1.88;;
11490;SDS011;5802;52.832;4.758;2023-05-29T00:27:41;3.63;;;1.38;;
11490;SDS011;5802;52.832;4.758;2023-05-29T00:30:08;2.72;;;1.42;;
11490;SDS011;5802;52.832;4.758;2023-05-29T00:32:35;4.50;;;1.42;;
11490;SDS011;5802;52.832;4.758;2023-05-29T00:35:02;7.43;;;1.70;;
11490;SDS011;5802;52.832;4.758;2023-05-29T00:37:29;4.20;;;1.27;;
11490;SDS011;5802;52.832;4.758;2023-05-29T00:39:57;4.47;;;1.70;;
11490;SDS011;5802;52.832;4.758;2023-05-29T00:42:23;4.10;;;1.52;;
11490;SDS011;5802;52.832;4.758;2023-05-29T00:44:50;5.57;;;1.42;;
11490;SDS011;5802;52.832;4.758;2023-05-29T00:47:17;3.58;;;1.35;;
11490;SDS011;5802;52.832;4.758;2023-05-29T00:49:43;5.30;;;1.40;;
11490;SDS011;5802;52.832;4.758;2023-05-29T00:52:10;3.78;;;1.20;;
11490;SDS011;5802;52.832;4.758;2023-05-29T00:54:38;3.42;;;1.27;;
11490;SDS011;5802;52.832;4.758;2023-05-29T00:57:06;3.55;;;1.50;;
11490;SDS011;5802;52.832;4.758;2023-05-29T00:59:33;3.85;;;1.30;;
11490;SDS011;5802;52.832;4.758;2023-05-29T01:02:00;5.13;;;1.55;;
11490;SDS011;5802;52.832;4.758;2023-05-29T01:04:28;3.80;;;1.40;;
11490;SDS011;5802;52.832;4.758;2023-05-29T01:06:58;2.13;;;1.15;;
11490;SDS011;5802;52.832;4.758;2023-05-29T01:09:27;2.78;;;1.33;;
11490;SDS011;5802;52.832;4.758;2023-05-29T01:11:57;4.13;;;1.45;;
11490;SDS011;5802;52.832;4.758;2023-05-29T01:14:32;3.92;;;1.27;;
11490;SDS011;5802;52.832;4.758;2023-05-29T01:17:04;4.63;;;1.48;;
11490;SDS011;5802;52.832;4.758;2023-05-29T01:22:34;2.30;;;1.10;;
11490;SDS011;5802;52.832;4.758;2023-05-29T01:25:10;3.83;;;1.23;;
11490;SDS011;5802;52.832;4.758;2023-05-29T01:27:44;3.22;;;1.05;;
11490;SDS011;5802;52.832;4.758;2023-05-29T01:30:13;2.92;;;1.15;;
11490;SDS011;5802;52.832;4.758;2023-05-29T01:32:41;2.45;;;1.20;;
11490;SDS011;5802;52.832;4.758;2023-05-29T01:35:08;4.60;;;1.20;;
11490;SDS011;5802;52.832;4.758;2023-05-29T01:37:35;2.33;;;1.00;;
11490;SDS011;5802;52.832;4.758;2023-05-29T01:40:02;3.13;;;1.20;;
11490;SDS011;5802;52.832;4.758;2023-05-29T01:42:29;3.65;;;1.50;;
11490;SDS011;5802;52.832;4.758;2023-05-29T01:44:58;3.47;;;1.20;;
11490;SDS011;5802;52.832;4.758;2023-05-29T01:47:25;2.90;;;1.23;;
11490;SDS011;5802;52.832;4.758;2023-05-29T01:49:52;2.00;;;1.10;;
11490;SDS011;5802;52.832;4.758;2023-05-29T01:52:20;2.45;;;1.00;;
11490;SDS011;5802;52.832;4.758;2023-05-29T01:54:47;3.92;;;1.05;;
11490;SDS011;5802;52.832;4.758;2023-05-29T01:57:14;5.25;;;1.42;;
11490;SDS011;5802;52.832;4.758;2023-05-29T01:59:41;4.88;;;1.33;;
11490;SDS011;5802;52.832;4.758;2023-05-29T02:02:09;2.30;;;0.80;;
11490;SDS011;5802;52.832;4.758;2023-05-29T02:04:36;3.45;;;1.23;;
11490;SDS011;5802;52.832;4.758;2023-05-29T02:07:04;3.10;;;1.35;;
11490;SDS011;5802;52.832;4.758;2023-05-29T02:09:31;2.85;;;1.63;;
11490;SDS011;5802;52.832;4.758;2023-05-29T02:11:57;3.17;;;1.20;;
11490;SDS011;5802;52.832;4.758;2023-05-29T02:14:24;2.50;;;1.27;;
11490;SDS011;5802;52.832;4.758;2023-05-29T02:16:51;2.45;;;1.08;;
11490;SDS011;5802;52.832;4.758;2023-05-29T02:19:19;3.80;;;1.15;;
11490;SDS011;5802;52.832;4.758;2023-05-29T02:21:46;2.50;;;1.08;;
11490;SDS011;5802;52.832;4.758;2023-05-29T02:24:14;4.80;;;1.17;;
11490;SDS011;5802;52.832;4.758;2023-05-29T02:26:40;2.72;;;1.30;;
11490;SDS011;5802;52.832;4.758;2023-05-29T02:29:08;3.88;;;1.42;;
11490;SDS011;5802;52.832;4.758;2023-05-29T02:31:35;2.38;;;0.88;;
11490;SDS011;5802;52.832;4.758;2023-05-29T02:34:02;2.92;;;1.00;;
11490;SDS011;5802;52.832;4.758;2023-05-29T02:36:30;2.78;;;1.10;;
11490;SDS011;5802;52.832;4.758;2023-05-29T02:38:57;2.28;;;0.90;;
11490;SDS011;5802;52.832;4.758;2023-05-29T02:41:24;2.00;;;1.00;;
11490;SDS011;5802;52.832;4.758;2023-05-29T02:43:51;4.95;;;1.20;;
11490;SDS011;5802;52.832;4.758;2023-05-29T02:46:17;2.58;;;1.20;;
11490;SDS011;5802;52.832;4.758;2023-05-29T02:48:45;3.42;;;1.30;;
11490;SDS011;5802;52.832;4.758;2023-05-29T02:51:11;2.60;;;1.02;;
11490;SDS011;5802;52.832;4.758;2023-05-29T02:53:39;1.98;;;0.90;;
11490;SDS011;5802;52.832;4.758;2023-05-29T02:56:07;2.60;;;1.10;;
11490;SDS011;5802;52.832;4.758;2023-05-29T02:58:34;2.63;;;1.13;;
11490;SDS011;5802;52.832;4.758;2023-05-29T03:01:01;4.05;;;1.20;;
11490;SDS011;5802;52.832;4.758;2023-05-29T03:03:29;3.08;;;1.02;;
11490;SDS011;5802;52.832;4.758;2023-05-29T03:05:56;3.47;;;1.20;;
11490;SDS011;5802;52.832;4.758;2023-05-29T03:08:23;3.03;;;1.00;;
11490;SDS011;5802;52.832;4.758;2023-05-29T03:10:52;2.42;;;1.25;;
11490;SDS011;5802;52.832;4.758;2023-05-29T03:13:18;1.55;;;0.93;;
11490;SDS011;5802;52.832;4.758;2023-05-29T03:15:46;3.55;;;1.35;;
11490;SDS011;5802;52.832;4.758;2023-05-29T03:18:13;1.88;;;0.93;;
11490;SDS011;5802;52.832;4.758;2023-05-29T03:20:40;2.40;;;1.02;;
11490;SDS011;5802;52.832;4.758;2023-05-29T03:23:06;3.30;;;1.08;;
11490;SDS011;5802;52.832;4.758;2023-05-29T03:25:35;2.22;;;1.00;;
11490;SDS011;5802;52.832;4.758;2023-05-29T03:28:03;3.08;;;1.10;;
11490;SDS011;5802;52.832;4.758;2023-05-29T03:30:30;2.72;;;1.25;;
11490;SDS011;5802;52.832;4.758;2023-05-29T03:32:57;3.88;;;1.40;;
11490;SDS011;5802;52.832;4.758;2023-05-29T03:35:28;3.13;;;1.15;;
11490;SDS011;5802;52.832;4.758;2023-05-29T03:37:54;2.53;;;1.20;;
11490;SDS011;5802;52.832;4.758;2023-05-29T03:40:21;3.15;;;1.13;;
11490;SDS011;5802;52.832;4.758;2023-05-29T03:42:48;1.92;;;1.20;;
11490;SDS011;5802;52.832;4.758;2023-05-29T03:45:17;3.05;;;1.20;;
11490;SDS011;5802;52.832;4.758;2023-05-29T03:47:44;3.60;;;1.35;;
11490;SDS011;5802;52.832;4.758;2023-05-29T03:50:10;2.65;;;1.00;;
11490;SDS011;5802;52.832;4.758;2023-05-29T03:52:40;3.42;;;1.20;;
11490;SDS011;5802;52.832;4.758;2023-05-29T03:55:08;1.85;;;1.23;;
11490;SDS011;5802;52.832;4.758;2023-05-29T03:57:38;2.55;;;1.13;;
11490;SDS011;5802;52.832;4.758;2023-05-29T04:00:05;1.95;;;1.17;;
11490;SDS011;5802;52.832;4.758;2023-05-29T04:02:38;2.50;;;0.93;;
11490;SDS011;5802;52.832;4.758;2023-05-29T04:05:05;2.50;;;1.10;;
11490;SDS011;5802;52.832;4.758;2023-05-29T04:07:32;2.30;;;1.08;;
11490;SDS011;5802;52.832;4.758;2023-05-29T04:09:59;1.92;;;1.23;;
11490;SDS011;5802;52.832;4.758;2023-05-29T04:12:25;3.67;;;1.48;;
11490;SDS011;5802;52.832;4.758;2023-05-29T04:14:52;2.22;;;1.05;;
11490;SDS011;5802;52.832;4.758;2023-05-29T04:17:19;2.78;;;1.30;;
11490;SDS011;5802;52.832;4.758;2023-05-29T04:19:47;3.83;;;1.20;;
11490;SDS011;5802;52.832;4.758;2023-05-29T04:22:14;3.40;;;1.40;;
11490;SDS011;5802;52.832;4.758;2023-05-29T04:24:41;3.30;;;1.15;;
11490;SDS011;5802;52.832;4.758;2023-05-29T04:27:07;4.25;;;1.00;;
11490;SDS011;5802;52.832;4.758;2023-05-29T04:29:38;3.33;;;1.13;;
11490;SDS011;5802;52.832;4.758;2023-05-29T04:32:05;1.33;;;0.73;;
11490;SDS011;5802;52.832;4.758;2023-05-29T04:34:33;2.50;;;1.10;;
11490;SDS011;5802;52.832;4.758;2023-05-29T04:37:01;2.90;;;1.40;;
11490;SDS011;5802;52.832;4.758;2023-05-29T04:39:28;1.60;;;0.80;;
11490;SDS011;5802;52.832;4.758;2023-05-29T04:41:55;2.45;;;1.10;;
11490;SDS011;5802;52.832;4.758;2023-05-29T04:44:23;3.63;;;1.20;;
11490;SDS011;5802;52.832;4.758;2023-05-29T04:46:51;2.40;;;1.20;;
11490;SDS011;5802;52.832;4.758;2023-05-29T04:49:18;6.07;;;1.50;;
11490;SDS011;5802;52.832;4.758;2023-05-29T04:51:45;2.00;;;0.85;;
11490;SDS011;5802;52.832;4.758;2023-05-29T04:54:13;2.85;;;1.00;;
11490;SDS011;5802;52.832;4.758;2023-05-29T04:56:41;1.92;;;0.95;;
11490;SDS011;5802;52.832;4.758;2023-05-29T04:59:08;2.28;;;1.10;;
11490;SDS011;5802;52.832;4.758;2023-05-29T05:01:35;1.92;;;1.10;;
11490;SDS011;5802;52.832;4.758;2023-05-29T05:04:01;2.15;;;0.88;;
11490;SDS011;5802;52.832;4.758;2023-05-29T05:06:28;2.35;;;1.00;;
11490;SDS011;5802;52.832;4.758;2023-05-29T05:08:55;3.05;;;1.15;;
11490;SDS011;5802;52.832;4.758;2023-05-29T05:11:23;1.60;;;0.93;;
11490;SDS011;5802;52.832;4.758;2023-05-29T05:13:50;3.13;;;1.00;;
11490;SDS011;5802;52.832;4.758;2023-05-29T05:16:17;2.08;;;0.88;;
11490;SDS011;5802;52.832;4.758;2023-05-29T05:18:44;1.67;;;1.00;;
11490;SDS011;5802;52.832;4.758;2023-05-29T05:21:10;1.80;;;0.90;;
11490;SDS011;5802;52.832;4.758;2023-05-29T05:23:37;1.75;;;0.90;;
11490;SDS011;5802;52.832;4.758;2023-05-29T05:26:04;1.67;;;0.90;;
11490;SDS011;5802;52.832;4.758;2023-05-29T05:28:32;2.80;;;1.05;;
11490;SDS011;5802;52.832;4.758;2023-05-29T05:31:00;2.10;;;1.00;;
11490;SDS011;5802;52.832;4.758;2023-05-29T05:33:27;1.48;;;0.90;;
11490;SDS011;5802;52.832;4.758;2023-05-29T05:35:54;2.78;;;1.00;;
11490;SDS011;5802;52.832;4.758;2023-05-29T05:38:20;1.65;;;1.00;;
11490;SDS011;5802;52.832;4.758;2023-05-29T05:40:47;2.08;;;0.80;;
11490;SDS011;5802;52.832;4.758;2023-05-29T05:43:14;4.30;;;1.08;;
11490;SDS011;5802;52.832;4.758;2023-05-29T05:45:42;2.08;;;1.00;;
11490;SDS011;5802;52.832;4.758;2023-05-29T05:48:08;1.83;;;0.90;;
11490;SDS011;5802;52.832;4.758;2023-05-29T05:50:35;1.17;;;0.80;;
11490;SDS011;5802;52.832;4.758;2023-05-29T05:53:02;2.53;;;1.10;;
11490;SDS011;5802;52.832;4.758;2023-05-29T05:55:28;1.98;;;0.75;;
11490;SDS011;5802;52.832;4.758;2023-05-29T05:57:55;1.70;;;0.85;;
11490;SDS011;5802;52.832;4.758;2023-05-29T06:00:22;2.60;;;1.00;;
11490;SDS011;5802;52.832;4.758;2023-05-29T06:02:50;1.33;;;0.77;;
11490;SDS011;5802;52.832;4.758;2023-05-29T06:05:17;1.58;;;0.82;;
11490;SDS011;5802;52.832;4.758;2023-05-29T06:07:44;2.03;;;0.70;;
11490;SDS011;5802;52.832;4.758;2023-05-29T06:10:10;1.65;;;0.90;;
11490;SDS011;5802;52.832;4.758;2023-05-29T06:12:38;3.28;;;1.20;;
11490;SDS011;5802;52.832;4.758;2023-05-29T06:15:05;1.15;;;0.73;;
11490;SDS011;5802;52.832;4.758;2023-05-29T06:17:33;1.88;;;0.95;;
11490;SDS011;5802;52.832;4.758;2023-05-29T06:20:01;2.22;;;1.00;;
11490;SDS011;5802;52.832;4.758;2023-05-29T06:22:31;2.25;;;1.00;;
11490;SDS011;5802;52.832;4.758;2023-05-29T06:24:58;1.40;;;0.75;;
11490;SDS011;5802;52.832;4.758;2023-05-29T06:27:24;1.60;;;1.00;;
11490;SDS011;5802;52.832;4.758;2023-05-29T06:29:51;2.53;;;1.20;;
11490;SDS011;5802;52.832;4.758;2023-05-29T06:32:18;1.55;;;0.88;;
11490;SDS011;5802;52.832;4.758;2023-05-29T06:34:45;5.25;;;1.20;;
11490;SDS011;5802;52.832;4.758;2023-05-29T06:37:13;3.42;;;1.10;;
11490;SDS011;5802;52.832;4.758;2023-05-29T06:39:40;2.55;;;1.13;;
11490;SDS011;5802;52.832;4.758;2023-05-29T06:42:09;4.82;;;1.10;;
11490;SDS011;5802;52.832;4.758;2023-05-29T06:44:36;3.95;;;1.10;;
11490;SDS011;5802;52.832;4.758;2023-05-29T06:47:03;3.53;;;1.10;;
11490;SDS011;5802;52.832;4.758;2023-05-29T06:49:31;2.05;;;0.90;;
11490;SDS011;5802;52.832;4.758;2023-05-29T06:51:57;2.58;;;1.20;;
11490;SDS011;5802;52.832;4.758;2023-05-29T06:54:26;5.25;;;1.10;;
11490;SDS011;5802;52.832;4.758;2023-05-29T06:56:53;3.60;;;0.95;;
11490;SDS011;5802;52.832;4.758;2023-05-29T06:59:19;2.15;;;1.10;;
11490;SDS011;5802;52.832;4.758;2023-05-29T07:01:46;3.22;;;0.95;;
11490;SDS011;5802;52.832;4.758;2023-05-29T07:04:13;2.38;;;1.20;;
11490;SDS011;5802;52.832;4.758;2023-05-29T07:06:40;2.90;;;1.30;;
11490;SDS011;5802;52.832;4.758;2023-05-29T07:09:06;3.35;;;1.38;;
11490;SDS011;5802;52.832;4.758;2023-05-29T07:11:35;3.28;;;1.20;;
11490;SDS011;5802;52.832;4.758;2023-05-29T07:14:01;3.47;;;1.33;;
11490;SDS011;5802;52.832;4.758;2023-05-29T07:16:29;6.47;;;1.50;;
11490;SDS011;5802;52.832;4.758;2023-05-29T07:18:56;5.85;;;2.15;;
11490;SDS011;5802;52.832;4.758;2023-05-29T07:21:22;6.60;;;1.67;;
11490;SDS011;5802;52.832;4.758;2023-05-29T07:23:50;7.45;;;1.65;;
11490;SDS011;5802;52.832;4.758;2023-05-29T07:26:16;4.32;;;1.80;;
11490;SDS011;5802;52.832;4.758;2023-05-29T07:28:44;3.90;;;1.75;;
11490;SDS011;5802;52.832;4.758;2023-05-29T07:31:11;6.40;;;1.90;;
11490;SDS011;5802;52.832;4.758;2023-05-29T07:33:39;4.43;;;1.75;;
11490;SDS011;5802;52.832;4.758;2023-05-29T07:36:06;5.95;;;1.70;;
11490;SDS011;5802;52.832;4.758;2023-05-29T07:38:33;5.15;;;1.60;;
11490;SDS011;5802;52.832;4.758;2023-05-29T07:40:59;6.32;;;1.77;;
11490;SDS011;5802;52.832;4.758;2023-05-29T07:43:26;7.43;;;1.75;;
11490;SDS011;5802;52.832;4.758;2023-05-29T07:45:54;6.25;;;2.00;;
11490;SDS011;5802;52.832;4.758;2023-05-29T07:48:21;5.32;;;1.80;;
11490;SDS011;5802;52.832;4.758;2023-05-29T07:50:47;4.88;;;1.60;;
11490;SDS011;5802;52.832;4.758;2023-05-29T07:53:14;3.92;;;1.50;;
11490;SDS011;5802;52.832;4.758;2023-05-29T07:55:41;7.80;;;1.95;;
11490;SDS011;5802;52.832;4.758;2023-05-29T07:58:07;5.60;;;1.65;;
11490;SDS011;5802;52.832;4.758;2023-05-29T08:00:36;5.93;;;2.00;;
11490;SDS011;5802;52.832;4.758;2023-05-29T08:03:05;4.63;;;1.55;;
11490;SDS011;5802;52.832;4.758;2023-05-29T08:05:31;3.05;;;1.40;;
11490;SDS011;5802;52.832;4.758;2023-05-29T08:07:58;3.10;;;1.25;;
11490;SDS011;5802;52.832;4.758;2023-05-29T08:10:25;5.20;;;1.60;;
11490;SDS011;5802;52.832;4.758;2023-05-29T08:12:52;3.92;;;1.50;;
11490;SDS011;5802;52.832;4.758;2023-05-29T08:15:18;4.85;;;1.55;;
11490;SDS011;5802;52.832;4.758;2023-05-29T08:17:45;3.13;;;1.73;;
11490;SDS011;5802;52.832;4.758;2023-05-29T08:20:13;4.25;;;1.40;;
11490;SDS011;5802;52.832;4.758;2023-05-29T08:22:40;3.97;;;1.40;;
11490;SDS011;5802;52.832;4.758;2023-05-29T08:25:07;3.03;;;1.38;;
11490;SDS011;5802;52.832;4.758;2023-05-29T08:27:34;3.38;;;1.52;;
11490;SDS011;5802;52.832;4.758;2023-05-29T08:30:02;3.72;;;1.52;;
11490;SDS011;5802;52.832;4.758;2023-05-29T08:32:29;3.55;;;1.17;;
11490;SDS011;5802;52.832;4.758;2023-05-29T08:34:56;2.72;;;1.33;;
11490;SDS011;5802;52.832;4.758;2023-05-29T08:37:24;3.75;;;1.30;;
11490;SDS011;5802;52.832;4.758;2023-05-29T08:39:51;4.35;;;1.73;;
11490;SDS011;5802;52.832;4.758;2023-05-29T08:42:20;4.63;;;1.50;;
11490;SDS011;5802;52.832;4.758;2023-05-29T08:44:49;2.58;;;1.40;;
11490;SDS011;5802;52.832;4.758;2023-05-29T08:47:20;4.22;;;1.42;;
11490;SDS011;5802;52.832;4.758;2023-05-29T08:49:50;2.60;;;1.48;;
11490;SDS011;5802;52.832;4.758;2023-05-29T08:52:20;3.67;;;1.25;;
11490;SDS011;5802;52.832;4.758;2023-05-29T08:54:49;2.53;;;1.20;;
11490;SDS011;5802;52.832;4.758;2023-05-29T08:57:17;2.97;;;1.27;;
11490;SDS011;5802;52.832;4.758;2023-05-29T08:59:44;3.80;;;1.70;;
11490;SDS011;5802;52.832;4.758;2023-05-29T09:02:11;4.00;;;1.40;;
11490;SDS011;5802;52.832;4.758;2023-05-29T09:04:38;3.03;;;1.40;;
11490;SDS011;5802;52.832;4.758;2023-05-29T09:07:07;4.88;;;1.42;;
11490;SDS011;5802;52.832;4.758;2023-05-29T09:09:34;3.28;;;1.30;;
11490;SDS011;5802;52.832;4.758;2023-05-29T09:12:02;4.65;;;1.33;;
11490;SDS011;5802;52.832;4.758;2023-05-29T09:14:32;4.20;;;1.58;;
11490;SDS011;5802;52.832;4.758;2023-05-29T09:17:00;3.10;;;1.38;;
11490;SDS011;5802;52.832;4.758;2023-05-29T09:19:28;4.07;;;1.63;;
11490;SDS011;5802;52.832;4.758;2023-05-29T09:21:59;6.05;;;1.60;;
11490;SDS011;5802;52.832;4.758;2023-05-29T09:24:27;3.60;;;1.70;;
11490;SDS011;5802;52.832;4.758;2023-05-29T09:26:55;8.93;;;2.05;;
11490;SDS011;5802;52.832;4.758;2023-05-29T09:29:23;6.20;;;2.17;;
11490;SDS011;5802;52.832;4.758;2023-05-29T09:31:50;5.68;;;1.88;;
11490;SDS011;5802;52.832;4.758;2023-05-29T09:34:17;4.55;;;1.90;;
11490;SDS011;5802;52.832;4.758;2023-05-29T09:36:44;5.63;;;1.75;;
11490;SDS011;5802;52.832;4.758;2023-05-29T09:39:11;5.80;;;2.13;;
11490;SDS011;5802;52.832;4.758;2023-05-29T09:41:41;4.35;;;1.52;;
11490;SDS011;5802;52.832;4.758;2023-05-29T09:44:10;4.32;;;1.85;;
11490;SDS011;5802;52.832;4.758;2023-05-29T09:46:40;4.68;;;1.67;;
11490;SDS011;5802;52.832;4.758;2023-05-29T09:49:11;4.95;;;1.88;;
11490;SDS011;5802;52.832;4.758;2023-05-29T09:51:38;7.07;;;1.90;;
11490;SDS011;5802;52.832;4.758;2023-05-29T09:54:12;6.78;;;2.25;;
11490;SDS011;5802;52.832;4.758;2023-05-29T09:56:40;8.18;;;2.25;;
11490;SDS011;5802;52.832;4.758;2023-05-29T09:59:08;9.07;;;2.65;;
11490;SDS011;5802;52.832;4.758;2023-05-29T10:01:39;5.32;;;2.00;;
11490;SDS011;5802;52.832;4.758;2023-05-29T10:04:09;5.57;;;2.13;;
11490;SDS011;5802;52.832;4.758;2023-05-29T10:06:36;6.82;;;2.30;;
11490;SDS011;5802;52.832;4.758;2023-05-29T10:09:05;7.63;;;2.45;;
11490;SDS011;5802;52.832;4.758;2023-05-29T10:11:35;9.18;;;2.45;;
11490;SDS011;5802;52.832;4.758;2023-05-29T10:14:03;5.90;;;2.50;;
11490;SDS011;5802;52.832;4.758;2023-05-29T10:16:32;10.10;;;2.92;;
11490;SDS011;5802;52.832;4.758;2023-05-29T10:19:04;7.78;;;2.95;;
11490;SDS011;5802;52.832;4.758;2023-05-29T10:21:35;12.35;;;2.70;;
11490;SDS011;5802;52.832;4.758;2023-05-29T10:24:06;7.65;;;2.88;;
11490;SDS011;5802;52.832;4.758;2023-05-29T10:26:34;6.60;;;2.83;;
11490;SDS011;5802;52.832;4.758;2023-05-29T10:29:03;8.60;;;2.92;;
11490;SDS011;5802;52.832;4.758;2023-05-29T10:31:46;14.18;;;3.20;;
11490;SDS011;5802;52.832;4.758;2023-05-29T10:34:25;8.60;;;3.08;;
11490;SDS011;5802;52.832;4.758;2023-05-29T10:37:01;15.50;;;6.90;;
11490;SDS011;5802;52.832;4.758;2023-05-29T10:39:34;18.25;;;8.88;;
11490;SDS011;5802;52.832;4.758;2023-05-29T10:42:01;22.02;;;9.43;;
11490;SDS011;5802;52.832;4.758;2023-05-29T10:44:37;16.48;;;8.10;;
11490;SDS011;5802;52.832;4.758;2023-05-29T10:47:06;20.75;;;8.93;;
11490;SDS011;5802;52.832;4.758;2023-05-29T10:49:35;18.92;;;8.30;;
11490;SDS011;5802;52.832;4.758;2023-05-29T10:52:03;14.93;;;7.13;;
11490;SDS011;5802;52.832;4.758;2023-05-29T10:54:39;18.95;;;7.28;;
11490;SDS011;5802;52.832;4.758;2023-05-29T10:57:15;14.90;;;6.25;;
11490;SDS011;5802;52.832;4.758;2023-05-29T10:59:42;15.68;;;6.40;;
11490;SDS011;5802;52.832;4.758;2023-05-29T11:02:11;12.95;;;5.25;;
11490;SDS011;5802;52.832;4.758;2023-05-29T11:04:44;11.15;;;5.15;;
11490;SDS011;5802;52.832;4.758;2023-05-29T11:07:32;9.77;;;4.75;;
11490;SDS011;5802;52.832;4.758;2023-05-29T11:10:10;9.77;;;4.60;;
11490;SDS011;5802;52.832;4.758;2023-05-29T11:15:23;10.85;;;3.95;;
11490;SDS011;5802;52.832;4.758;2023-05-29T11:17:51;8.45;;;3.70;;
11490;SDS011;5802;52.832;4.758;2023-05-29T11:20:27;11.68;;;3.67;;
11490;SDS011;5802;52.832;4.758;2023-05-29T11:23:02;8.07;;;3.50;;
11490;SDS011;5802;52.832;4.758;2023-05-29T11:25:33;8.65;;;3.53;;
11490;SDS011;5802;52.832;4.758;2023-05-29T11:28:01;9.32;;;3.00;;
11490;SDS011;5802;52.832;4.758;2023-05-29T11:30:36;9.15;;;3.00;;
11490;SDS011;5802;52.832;4.758;2023-05-29T11:33:07;9.20;;;2.97;;
11490;SDS011;5802;52.832;4.758;2023-05-29T11:35:38;8.82;;;3.10;;
11490;SDS011;5802;52.832;4.758;2023-05-29T11:38:05;10.35;;;3.13;;
11490;SDS011;5802;52.832;4.758;2023-05-29T11:40:35;6.97;;;2.60;;
11490;SDS011;5802;52.832;4.758;2023-05-29T11:43:02;9.43;;;2.70;;
11490;SDS011;5802;52.832;4.758;2023-05-29T11:45:31;5.95;;;2.47;;
11490;SDS011;5802;52.832;4.758;2023-05-29T11:47:59;5.55;;;2.22;;
11490;SDS011;5802;52.832;4.758;2023-05-29T11:50:28;8.02;;;2.58;;
11490;SDS011;5802;52.832;4.758;2023-05-29T11:52:57;4.65;;;2.05;;
11490;SDS011;5802;52.832;4.758;2023-05-29T11:55:25;6.95;;;2.90;;
11490;SDS011;5802;52.832;4.758;2023-05-29T11:57:55;8.93;;;2.75;;
11490;SDS011;5802;52.832;4.758;2023-05-29T12:00:22;8.35;;;2.50;;
11490;SDS011;5802;52.832;4.758;2023-05-29T12:02:49;7.32;;;2.38;;
11490;SDS011;5802;52.832;4.758;2023-05-29T12:05:17;7.85;;;2.60;;
11490;SDS011;5802;52.832;4.758;2023-05-29T12:07:47;7.10;;;2.50;;
11490;SDS011;5802;52.832;4.758;2023-05-29T12:10:16;8.38;;;2.50;;
11490;SDS011;5802;52.832;4.758;2023-05-29T12:12:47;7.85;;;2.40;;
11490;SDS011;5802;52.832;4.758;2023-05-29T12:15:17;9.15;;;2.80;;
11490;SDS011;5802;52.832;4.758;2023-05-29T12:17:44;6.90;;;2.50;;
11490;SDS011;5802;52.832;4.758;2023-05-29T12:20:12;9.60;;;2.92;;
11490;SDS011;5802;52.832;4.758;2023-05-29T12:22:40;8.05;;;2.28;;
11490;SDS011;5802;52.832;4.758;2023-05-29T12:25:09;5.63;;;2.20;;
11490;SDS011;5802;52.832;4.758;2023-05-29T12:27:39;9.27;;;2.65;;
11490;SDS011;5802;52.832;4.758;2023-05-29T12:30:09;8.40;;;2.42;;
11490;SDS011;5802;52.832;4.758;2023-05-29T12:32:40;6.03;;;2.35;;
11490;SDS011;5802;52.832;4.758;2023-05-29T12:35:13;6.35;;;2.35;;
11490;SDS011;5802;52.832;4.758;2023-05-29T12:37:43;9.20;;;2.83;;
11490;SDS011;5802;52.832;4.758;2023-05-29T12:40:16;6.13;;;2.20;;
11490;SDS011;5802;52.832;4.758;2023-05-29T12:42:46;4.60;;;2.10;;
11490;SDS011;5802;52.832;4.758;2023-05-29T12:45:13;6.47;;;2.50;;
11490;SDS011;5802;52.832;4.758;2023-05-29T12:47:48;6.07;;;2.40;;
11490;SDS011;5802;52.832;4.758;2023-05-29T12:50:23;6.43;;;2.00;;
11490;SDS011;5802;52.832;4.758;2023-05-29T12:52:55;7.13;;;2.35;;
11490;SDS011;5802;52.832;4.758;2023-05-29T12:55:23;7.28;;;2.22;;
11490;SDS011;5802;52.832;4.758;2023-05-29T12:57:51;6.93;;;2.42;;
11490;SDS011;5802;52.832;4.758;2023-05-29T13:00:18;8.18;;;2.35;;
11490;SDS011;5802;52.832;4.758;2023-05-29T13:02:46;8.13;;;2.10;;
11490;SDS011;5802;52.832;4.758;2023-05-29T13:05:13;10.10;;;2.40;;
11490;SDS011;5802;52.832;4.758;2023-05-29T13:07:41;10.10;;;2.58;;
11490;SDS011;5802;52.832;4.758;2023-05-29T13:10:08;6.85;;;2.85;;
11490;SDS011;5802;52.832;4.758;2023-05-29T13:12:36;8.60;;;2.33;;
11490;SDS011;5802;52.832;4.758;2023-05-29T13:15:04;12.80;;;2.20;;
11490;SDS011;5802;52.832;4.758;2023-05-29T13:17:31;7.85;;;2.10;;
11490;SDS011;5802;52.832;4.758;2023-05-29T13:19:59;13.23;;;2.90;;
11490;SDS011;5802;52.832;4.758;2023-05-29T13:22:26;12.82;;;2.60;;
11490;SDS011;5802;52.832;4.758;2023-05-29T13:24:56;9.52;;;2.30;;
11490;SDS011;5802;52.832;4.758;2023-05-29T13:27:23;11.57;;;2.40;;
11490;SDS011;5802;52.832;4.758;2023-05-29T13:29:50;4.28;;;1.90;;
11490;SDS011;5802;52.832;4.758;2023-05-29T13:32:18;7.35;;;1.92;;
11490;SDS011;5802;52.832;4.758;2023-05-29T13:34:44;15.23;;;2.58;;
11490;SDS011;5802;52.832;4.758;2023-05-29T13:37:11;9.43;;;2.33;;
11490;SDS011;5802;52.832;4.758;2023-05-29T13:39:38;12.57;;;2.30;;
11490;SDS011;5802;52.832;4.758;2023-05-29T13:42:05;7.50;;;2.55;;
11490;SDS011;5802;52.832;4.758;2023-05-29T13:44:32;10.07;;;2.50;;
11490;SDS011;5802;52.832;4.758;2023-05-29T13:46:59;5.43;;;2.40;;
11490;SDS011;5802;52.832;4.758;2023-05-29T13:49:27;5.93;;;2.30;;
11490;SDS011;5802;52.832;4.758;2023-05-29T13:51:53;4.32;;;1.83;;
11490;SDS011;5802;52.832;4.758;2023-05-29T13:54:20;7.47;;;2.10;;
11490;SDS011;5802;52.832;4.758;2023-05-29T13:56:47;5.15;;;1.90;;
11490;SDS011;5802;52.832;4.758;2023-05-29T13:59:14;6.53;;;2.20;;
11490;SDS011;5802;52.832;4.758;2023-05-29T14:01:41;5.25;;;1.95;;
11490;SDS011;5802;52.832;4.758;2023-05-29T14:04:07;4.63;;;1.70;;
11490;SDS011;5802;52.832;4.758;2023-05-29T14:06:36;5.60;;;1.85;;
11490;SDS011;5802;52.832;4.758;2023-05-29T14:09:03;8.02;;;2.05;;
11490;SDS011;5802;52.832;4.758;2023-05-29T14:11:29;9.35;;;2.42;;
11490;SDS011;5802;52.832;4.758;2023-05-29T14:14:00;7.50;;;2.40;;
11490;SDS011;5802;52.832;4.758;2023-05-29T14:16:27;6.60;;;2.15;;
11490;SDS011;5802;52.832;4.758;2023-05-29T14:18:53;11.55;;;2.35;;
11490;SDS011;5802;52.832;4.758;2023-05-29T14:21:20;10.23;;;2.40;;
11490;SDS011;5802;52.832;4.758;2023-05-29T14:23:48;6.93;;;2.13;;
11490;SDS011;5802;52.832;4.758;2023-05-29T14:26:15;7.10;;;1.92;;
11490;SDS011;5802;52.832;4.758;2023-05-29T14:28:42;10.18;;;2.58;;
11490;SDS011;5802;52.832;4.758;2023-05-29T14:31:09;5.88;;;2.30;;
11490;SDS011;5802;52.832;4.758;2023-05-29T14:33:36;9.50;;;2.40;;
11490;SDS011;5802;52.832;4.758;2023-05-29T14:36:03;7.47;;;2.15;;
11490;SDS011;5802;52.832;4.758;2023-05-29T14:38:30;9.88;;;2.70;;
11490;SDS011;5802;52.832;4.758;2023-05-29T14:40:58;8.52;;;2.17;;
11490;SDS011;5802;52.832;4.758;2023-05-29T14:43:24;7.95;;;2.67;;
11490;SDS011;5802;52.832;4.758;2023-05-29T14:45:51;12.63;;;2.85;;
11490;SDS011;5802;52.832;4.758;2023-05-29T14:48:18;7.38;;;2.47;;
11490;SDS011;5802;52.832;4.758;2023-05-29T14:50:44;8.63;;;2.25;;
11490;SDS011;5802;52.832;4.758;2023-05-29T14:53:11;6.10;;;1.98;;
11490;SDS011;5802;52.832;4.758;2023-05-29T14:55:38;10.13;;;2.20;;
11490;SDS011;5802;52.832;4.758;2023-05-29T14:58:06;8.55;;;2.40;;
11490;SDS011;5802;52.832;4.758;2023-05-29T15:00:32;4.38;;;1.88;;
11490;SDS011;5802;52.832;4.758;2023-05-29T15:02:59;6.25;;;2.10;;
11490;SDS011;5802;52.832;4.758;2023-05-29T15:05:27;4.75;;;1.80;;
11490;SDS011;5802;52.832;4.758;2023-05-29T15:07:54;6.88;;;1.95;;
11490;SDS011;5802;52.832;4.758;2023-05-29T15:10:22;5.57;;;2.42;;